UKLL/LWO METAR and TAF weather

Enter ICAO airport designator
Station Type Date Time Source
UKLL METAR 2020/01/17 14:30 UTC NOAA

UKLL 171430Z 12004MPS 6000 BKN004 02/01 Q1028 R13/CLRD// NOSIG


Station Type Date Time Source
UKLL Decoded METAR 2020/01/17 14:30 UTC NOAA

L'Viv, Ukraine (UKLL) 49-49N 023-57E 323M
Jan 17, 2020 - 09:30 AM EST / 2020.01.17 1430 UTC
Wind: from the ESE (120 degrees) at 9 MPH (8 KT):0
Visibility: 3 mile(s):0
Sky conditions: mostly cloudy
Temperature: 35 F (2 C)
Windchill: 28 F (-2 C):1
Dew Point: 33 F (1 C)
Relative Humidity: 93%
Pressure (altimeter): 30.36 in. Hg (1028 hPa)
ob: UKLL 171430Z 12004MPS 6000 BKN004 02/01 Q1028 R13/CLRD// NOSIG
cycle: 14

Station Type Date Time Source
UKLL TAF 2020/01/17 12:33 UTC NOAA

TAF UKLL 171125Z 1712/1812 14005MPS 3000 BR SCT002 OVC003 TX03/1713Z TNM03/1803Z
TEMPO 1712/1718 2100 BR BKN005
BECMG 1718/1720 16005MPS 2100 BR
TEMPO 1720/1808 0400 FZFG VV002
BECMG 1808/1810 SCT004 BKN007

Example: see airport list